createdAt,value
2018-12-14T00:02:22.637Z,24.50
2018-12-14T00:04:49.333Z,27.98
2018-12-14T00:07:16.060Z,26.55
2018-12-14T00:09:42.756Z,26.55
2018-12-14T00:12:09.465Z,26.82
2018-12-14T00:14:36.227Z,28.02
2018-12-14T00:17:03.007Z,25.82
2018-12-14T00:19:29.746Z,25.88
2018-12-14T00:21:56.451Z,27.22
2018-12-14T00:24:23.159Z,27.15
2018-12-14T00:26:50.001Z,27.10
2018-12-14T00:29:16.694Z,25.50
2018-12-14T00:31:43.392Z,27.27
2018-12-14T00:34:10.102Z,28.27
2018-12-14T00:36:36.796Z,29.92
2018-12-14T00:39:04.572Z,25.97
2018-12-14T00:41:31.289Z,27.15
2018-12-14T00:43:57.991Z,27.30
2018-12-14T00:46:24.679Z,26.93
2018-12-14T00:48:51.392Z,27.35
2018-12-14T00:51:18.079Z,28.07
2018-12-14T00:53:44.805Z,27.27
2018-12-14T00:56:11.500Z,26.37
2018-12-14T00:58:38.182Z,27.07
2018-12-14T01:01:04.892Z,27.90
2018-12-14T01:03:31.580Z,28.75
2018-12-14T01:05:58.292Z,27.27
2018-12-14T01:08:24.981Z,26.35
2018-12-14T01:10:51.676Z,27.17
2018-12-14T01:13:18.379Z,26.12
2018-12-14T01:15:45.073Z,27.55
2018-12-14T01:18:11.781Z,28.10
2018-12-14T01:20:38.508Z,28.67
2018-12-14T01:23:05.200Z,26.82
2018-12-14T01:25:31.892Z,28.32
2018-12-14T01:27:58.608Z,25.75
2018-12-14T01:30:25.308Z,28.77
2018-12-14T01:32:52.007Z,28.45
2018-12-14T01:35:18.720Z,26.57
2018-12-14T01:37:45.416Z,25.92
2018-12-14T01:40:12.124Z,28.40
2018-12-14T01:42:38.808Z,27.62
2018-12-14T01:45:05.616Z,26.02
2018-12-14T01:47:32.420Z,26.50
2018-12-14T01:49:59.125Z,26.87
2018-12-14T01:52:26.017Z,26.85
2018-12-14T01:54:52.964Z,26.95
2018-12-14T01:57:19.997Z,27.00
2018-12-14T01:59:46.702Z,28.32
2018-12-14T02:02:13.495Z,27.15
2018-12-14T02:04:40.193Z,27.50
2018-12-14T02:07:06.903Z,28.15
2018-12-14T02:09:33.597Z,29.72
2018-12-14T02:12:00.304Z,27.32
2018-12-14T02:14:26.991Z,28.20
2018-12-14T02:16:53.717Z,28.52
2018-12-14T02:19:20.407Z,27.70
2018-12-14T02:21:47.095Z,27.42
2018-12-14T02:24:13.808Z,27.85
2018-12-14T02:26:40.505Z,26.57
2018-12-14T02:29:07.231Z,28.45
2018-12-14T02:31:33.928Z,26.55
2018-12-14T02:34:00.645Z,28.27
2018-12-14T02:36:27.336Z,25.08
2018-12-14T02:38:54.029Z,27.52
2018-12-14T02:41:20.740Z,28.10
2018-12-14T02:43:47.509Z,28.45
2018-12-14T02:46:14.204Z,26.65
2018-12-14T02:48:40.921Z,27.42
2018-12-14T02:51:07.642Z,26.82
2018-12-14T02:53:34.366Z,27.13
2018-12-14T02:56:01.068Z,26.77
2018-12-14T02:58:27.781Z,26.37
2018-12-14T03:00:54.498Z,27.95
2018-12-14T03:03:21.198Z,26.50
2018-12-14T03:05:47.913Z,27.58
2018-12-14T03:08:14.605Z,28.30
2018-12-14T03:10:41.324Z,27.07
2018-12-14T03:13:08.021Z,26.35
2018-12-14T03:15:34.722Z,26.23
2018-12-14T03:18:01.447Z,26.17
2018-12-14T03:20:28.135Z,26.40
2018-12-14T03:22:54.846Z,27.85
2018-12-14T03:25:21.569Z,25.30
2018-12-14T03:27:48.258Z,27.00
2018-12-14T03:30:14.969Z,26.55
2018-12-14T03:32:41.676Z,25.50
2018-12-14T03:35:08.457Z,26.20
2018-12-14T03:37:35.171Z,23.98
2018-12-14T03:40:01.854Z,24.18
2018-12-14T03:42:34.299Z,25.62
2018-12-14T03:44:57.306Z,24.65
2018-12-14T03:47:23.990Z,23.62
2018-12-14T03:49:50.688Z,24.45
2018-12-14T03:52:17.406Z,23.42
2018-12-14T03:54:44.096Z,24.75
2018-12-14T03:57:10.803Z,26.15
2018-12-14T03:59:37.509Z,25.25
2018-12-14T04:02:04.216Z,24.30
2018-12-14T04:04:30.914Z,24.45
2018-12-14T04:06:57.601Z,24.45
2018-12-14T04:09:24.325Z,24.45
2018-12-14T04:11:51.029Z,25.57
2018-12-14T04:14:17.748Z,25.35
2018-12-14T04:16:44.445Z,22.30
2018-12-14T04:19:11.152Z,24.02
2018-12-14T04:21:37.877Z,23.65
2018-12-14T04:24:04.572Z,23.60
2018-12-14T04:26:31.290Z,23.00
2018-12-14T04:28:57.995Z,24.40
2018-12-14T04:31:24.711Z,23.32
2018-12-14T04:33:51.424Z,25.50
2018-12-14T04:36:18.136Z,22.90
2018-12-14T04:38:44.828Z,23.70
2018-12-14T04:41:11.625Z,23.55
2018-12-14T04:43:38.321Z,23.12
2018-12-14T04:46:05.026Z,23.12
2018-12-14T04:48:31.737Z,22.98
2018-12-14T04:50:58.423Z,22.80
2018-12-14T04:53:25.142Z,23.62
2018-12-14T04:55:51.847Z,22.67
2018-12-14T04:58:18.545Z,24.05
2018-12-14T05:00:45.261Z,23.20
2018-12-14T05:03:11.963Z,23.35
2018-12-14T05:05:38.672Z,23.25
2018-12-14T05:08:05.383Z,23.32
2018-12-14T05:10:32.076Z,23.00
2018-12-14T05:12:58.760Z,21.95
2018-12-14T05:15:25.485Z,23.22
2018-12-14T05:17:52.172Z,21.25
2018-12-14T05:20:18.892Z,22.37
2018-12-14T05:22:45.584Z,22.62
2018-12-14T05:25:12.287Z,23.00
2018-12-14T05:27:38.996Z,24.18
2018-12-14T05:30:06.864Z,23.05
2018-12-14T05:32:33.585Z,21.93
2018-12-14T05:35:00.306Z,23.27
2018-12-14T05:37:27.008Z,22.13
2018-12-14T05:39:53.723Z,23.90
2018-12-14T05:42:20.417Z,23.42
2018-12-14T05:44:47.137Z,22.22
2018-12-14T05:47:13.836Z,23.18
2018-12-14T05:49:40.530Z,22.37
2018-12-14T05:52:07.248Z,22.65
2018-12-14T05:54:33.944Z,23.15
2018-12-14T05:57:00.651Z,22.05
2018-12-14T05:59:27.364Z,22.48
2018-12-14T06:01:54.096Z,25.48
2018-12-14T06:04:20.810Z,22.13
2018-12-14T06:06:47.509Z,23.42
2018-12-14T06:09:14.911Z,24.50
2018-12-14T06:11:41.831Z,24.00
2018-12-14T06:14:08.615Z,23.57
2018-12-14T06:16:35.307Z,23.02
2018-12-14T06:19:02.024Z,22.77
2018-12-14T06:21:28.754Z,24.12
2018-12-14T06:23:55.444Z,23.75
2018-12-14T06:26:22.145Z,25.50
2018-12-14T06:28:48.860Z,23.67
2018-12-14T06:31:15.548Z,23.65
2018-12-14T06:33:42.245Z,23.90
2018-12-14T06:36:08.960Z,24.67
2018-12-14T06:38:35.681Z,24.70
2018-12-14T06:41:02.433Z,24.30
2018-12-14T06:43:29.145Z,21.93
2018-12-14T06:45:55.841Z,22.70
2018-12-14T06:48:22.532Z,23.20
2018-12-14T06:50:49.542Z,27.67
2018-12-14T06:53:16.551Z,26.00
2018-12-14T06:55:43.336Z,24.50
2018-12-14T06:58:10.043Z,24.27
2018-12-14T07:00:36.729Z,27.80
2018-12-14T07:03:03.432Z,27.60
2018-12-14T07:05:30.138Z,25.92
2018-12-14T07:07:56.856Z,24.35
2018-12-14T07:10:23.555Z,23.70
2018-12-14T07:12:50.250Z,23.45
2018-12-14T07:15:16.956Z,24.40
2018-12-14T07:17:43.667Z,23.75
2018-12-14T07:20:10.364Z,24.37
2018-12-14T07:22:37.069Z,25.15
2018-12-14T07:25:04.545Z,22.73
2018-12-14T07:27:31.367Z,22.75
2018-12-14T07:29:58.070Z,24.60
2018-12-14T07:32:24.779Z,23.22
2018-12-14T07:34:51.479Z,23.95
2018-12-14T07:37:18.192Z,22.15
2018-12-14T07:39:44.936Z,22.45
2018-12-14T07:42:11.624Z,23.87
2018-12-14T07:44:38.552Z,24.45
2018-12-14T07:47:11.444Z,23.27
2018-12-14T07:49:34.205Z,24.37
2018-12-14T07:52:00.927Z,23.42
2018-12-14T07:54:27.736Z,22.93
2018-12-14T07:56:55.688Z,21.37
2018-12-14T07:59:22.588Z,23.65
2018-12-14T08:01:49.280Z,25.12
2018-12-14T08:04:15.972Z,24.12
2018-12-14T08:06:42.687Z,25.52
2018-12-14T08:09:09.372Z,24.55
2018-12-14T08:11:36.091Z,23.75
2018-12-14T08:14:02.792Z,21.75
2018-12-14T08:16:29.485Z,23.62
2018-12-14T08:18:56.192Z,22.52
2018-12-14T08:21:22.899Z,24.23
2018-12-14T08:23:49.616Z,23.42
2018-12-14T08:26:16.312Z,22.85
2018-12-14T08:28:43.003Z,26.00
2018-12-14T08:31:09.722Z,23.05
2018-12-14T08:33:36.434Z,22.77
2018-12-14T08:36:03.145Z,23.12
2018-12-14T08:38:29.840Z,22.10
2018-12-14T08:40:56.542Z,24.52
2018-12-14T08:43:23.256Z,22.95
2018-12-14T08:45:49.948Z,21.75
2018-12-14T08:48:16.724Z,23.05
2018-12-14T08:50:43.641Z,22.60
2018-12-14T08:53:10.615Z,22.48
2018-12-14T08:55:37.311Z,22.40
2018-12-14T08:58:04.024Z,22.95
2018-12-14T09:00:30.723Z,22.45
2018-12-14T09:02:57.431Z,23.60
2018-12-14T09:05:24.153Z,23.55
2018-12-14T09:07:50.852Z,21.68
2018-12-14T09:10:17.559Z,22.50
2018-12-14T09:12:44.264Z,22.95
2018-12-14T09:15:10.964Z,20.97
2018-12-14T09:17:37.698Z,21.90
2018-12-14T09:20:04.968Z,22.45
2018-12-14T09:22:31.669Z,23.38
2018-12-14T09:24:58.361Z,20.90
2018-12-14T09:27:25.063Z,21.82
2018-12-14T09:29:51.785Z,21.75
2018-12-14T09:32:18.484Z,21.85
2018-12-14T09:34:45.256Z,20.85
2018-12-14T09:37:11.965Z,23.55
2018-12-14T09:39:38.666Z,21.95
2018-12-14T09:42:05.380Z,20.35
2018-12-14T09:44:32.164Z,22.40
2018-12-14T09:46:58.873Z,20.65
2018-12-14T09:49:25.589Z,19.75
2018-12-14T09:51:52.276Z,19.92
2018-12-14T09:54:18.997Z,20.55
2018-12-14T09:56:45.707Z,20.92
2018-12-14T09:59:12.398Z,22.48
2018-12-14T10:01:39.120Z,19.92
2018-12-14T10:04:05.909Z,19.48
2018-12-14T10:06:32.601Z,21.17
2018-12-14T10:08:59.307Z,19.30
2018-12-14T10:11:26.007Z,19.37
2018-12-14T10:13:52.712Z,20.35
2018-12-14T10:16:19.408Z,19.67
2018-12-14T10:18:46.316Z,20.68
2018-12-14T10:21:13.000Z,21.00
2018-12-14T10:23:39.704Z,21.75
2018-12-14T10:26:06.427Z,22.52
2018-12-14T10:28:33.126Z,21.75
2018-12-14T10:30:59.849Z,21.85
2018-12-14T10:33:26.552Z,20.37
2018-12-14T10:35:53.254Z,21.70
2018-12-14T10:38:19.972Z,20.08
2018-12-14T10:40:46.675Z,22.13
2018-12-14T10:43:13.418Z,19.85
2018-12-14T10:45:40.408Z,20.77
2018-12-14T10:48:07.109Z,20.75
2018-12-14T10:50:39.226Z,19.85
2018-12-14T10:53:04.696Z,20.30
2018-12-14T10:55:31.544Z,20.72
2018-12-14T10:57:58.366Z,20.57
2018-12-14T11:03:37.010Z,20.35
2018-12-14T11:06:03.693Z,22.45
2018-12-14T11:08:30.370Z,25.02
2018-12-14T11:10:57.122Z,24.80
2018-12-14T11:13:23.860Z,21.90
2018-12-14T11:15:50.540Z,24.82
2018-12-14T11:18:17.342Z,20.40
2018-12-14T11:20:44.029Z,19.37
2018-12-14T11:23:10.720Z,19.62
2018-12-14T11:25:37.440Z,21.60
2018-12-14T11:28:04.200Z,21.65
2018-12-14T11:30:30.879Z,21.90
2018-12-14T11:32:57.681Z,21.93
2018-12-14T11:35:24.368Z,21.52
2018-12-14T11:37:51.678Z,20.82
2018-12-14T11:40:18.379Z,21.20
2018-12-14T11:42:45.064Z,22.13
2018-12-14T11:45:11.753Z,24.65
2018-12-14T11:47:38.532Z,20.30
2018-12-14T11:50:05.994Z,23.22
2018-12-14T11:52:32.701Z,23.02
2018-12-14T11:54:59.512Z,21.07
2018-12-14T11:57:26.195Z,23.85
2018-12-14T11:59:52.903Z,22.52
2018-12-14T12:02:19.589Z,21.15
2018-12-14T12:04:46.285Z,24.75
2018-12-14T12:07:12.976Z,20.88
2018-12-14T12:09:39.661Z,19.37
2018-12-14T12:12:06.341Z,19.65
2018-12-14T12:14:32.996Z,20.72
2018-12-14T12:16:59.657Z,20.43
2018-12-14T12:19:26.351Z,20.57
2018-12-14T12:21:53.032Z,19.98
2018-12-14T12:24:19.709Z,21.40
2018-12-14T12:26:46.401Z,19.98
2018-12-14T12:29:13.061Z,19.98
2018-12-14T12:31:39.728Z,21.80
2018-12-14T12:34:06.498Z,22.65
2018-12-14T12:36:33.159Z,25.45
2018-12-14T12:38:59.857Z,19.77
2018-12-14T12:41:26.616Z,20.25
2018-12-14T12:43:53.283Z,22.52
2018-12-14T12:46:20.100Z,23.20
2018-12-14T12:48:47.066Z,20.77
2018-12-14T12:51:13.814Z,21.50
2018-12-14T12:53:40.492Z,20.35
2018-12-14T12:56:07.454Z,22.27
2018-12-14T12:58:34.167Z,21.70
2018-12-14T13:01:00.821Z,21.27
2018-12-14T13:03:27.526Z,21.65
2018-12-14T13:05:54.271Z,21.00
2018-12-14T13:08:20.968Z,21.90
2018-12-14T13:10:47.638Z,20.77
2018-12-14T13:13:14.323Z,21.10
2018-12-14T13:15:41.011Z,21.42
2018-12-14T13:18:07.680Z,22.17
2018-12-14T13:20:34.361Z,21.00
2018-12-14T13:23:01.047Z,21.25
2018-12-14T13:25:27.724Z,21.17
2018-12-14T13:27:54.387Z,20.05
2018-12-14T13:30:21.127Z,21.42
2018-12-14T13:32:47.810Z,20.48
2018-12-14T13:35:14.482Z,21.77
2018-12-14T13:37:41.209Z,21.70
2018-12-14T13:40:07.871Z,24.00
2018-12-14T13:42:34.657Z,23.27
2018-12-14T13:45:01.569Z,19.95
2018-12-14T13:47:28.293Z,24.52
2018-12-14T13:49:55.105Z,23.57
2018-12-14T13:52:21.760Z,23.05
2018-12-14T13:54:48.462Z,22.17
2018-12-14T13:57:15.158Z,22.80
2018-12-14T13:59:41.845Z,21.93
2018-12-14T14:02:08.575Z,22.70
2018-12-14T14:04:35.978Z,22.70
2018-12-14T14:07:02.939Z,22.37
2018-12-14T14:09:29.758Z,24.52
2018-12-14T14:11:56.419Z,23.73
2018-12-14T14:14:23.114Z,22.80
2018-12-14T14:16:50.946Z,25.50
2018-12-14T14:19:17.688Z,25.70
2018-12-14T14:21:44.359Z,26.52
2018-12-14T14:24:11.102Z,24.00
2018-12-14T14:26:44.360Z,24.32
2018-12-14T14:29:06.574Z,26.23
2018-12-14T14:31:33.237Z,27.30
2018-12-14T14:33:59.906Z,27.95
2018-12-14T14:36:26.589Z,25.70
2018-12-14T14:38:53.244Z,23.35
2018-12-14T14:41:19.905Z,28.17
2018-12-14T14:43:46.595Z,26.77
2018-12-14T14:46:13.259Z,24.25
2018-12-14T14:48:39.920Z,27.95
2018-12-14T14:51:07.402Z,24.07
2018-12-14T14:53:34.175Z,24.57
2018-12-14T14:56:00.836Z,26.12
2018-12-14T14:58:27.521Z,24.72
2018-12-14T15:00:54.190Z,25.48
2018-12-14T15:03:21.065Z,23.35
2018-12-14T15:05:47.758Z,24.43
2018-12-14T15:08:14.548Z,26.12
2018-12-14T15:10:41.237Z,29.07
2018-12-14T15:13:07.925Z,28.90
2018-12-14T15:15:34.588Z,27.05
2018-12-14T15:18:01.284Z,25.15
2018-12-14T15:20:27.957Z,27.40
2018-12-14T15:22:54.614Z,25.37
2018-12-14T15:25:21.297Z,26.48
2018-12-14T15:27:47.966Z,25.62
2018-12-14T15:30:14.668Z,27.22
2018-12-14T15:32:41.356Z,24.90
2018-12-14T15:35:08.034Z,27.35
2018-12-14T15:37:34.693Z,29.07
2018-12-14T15:40:01.387Z,25.40
2018-12-14T15:42:28.055Z,24.80
2018-12-14T15:44:54.722Z,27.93
2018-12-14T15:47:21.422Z,26.75
2018-12-14T15:49:48.176Z,25.85
2018-12-14T15:52:14.832Z,28.52
2018-12-14T15:54:41.516Z,29.05
2018-12-14T15:57:08.257Z,28.73
2018-12-14T15:59:34.977Z,27.48
2018-12-14T16:02:01.671Z,27.85
2018-12-14T16:04:28.518Z,25.80
2018-12-14T16:06:55.182Z,26.60
2018-12-14T16:09:21.870Z,27.95
2018-12-14T16:11:48.537Z,28.27
2018-12-14T16:14:15.214Z,28.52
2018-12-14T16:16:41.920Z,30.10
2018-12-14T16:19:08.655Z,28.38
2018-12-14T16:21:35.363Z,30.23
2018-12-14T16:24:02.138Z,32.05
2018-12-14T16:26:28.814Z,26.33
2018-12-14T16:28:55.509Z,29.77
2018-12-14T16:31:22.170Z,28.52
2018-12-14T16:33:48.829Z,30.55
2018-12-14T16:36:15.514Z,27.37
2018-12-14T16:38:42.198Z,26.85
2018-12-14T16:41:08.869Z,29.05
2018-12-14T16:43:35.562Z,29.18
2018-12-14T16:46:02.221Z,24.65
2018-12-14T16:48:28.888Z,27.15
2018-12-14T16:50:55.565Z,28.70
2018-12-14T16:53:22.225Z,24.77
2018-12-14T16:55:48.909Z,28.30
2018-12-14T16:58:15.570Z,28.15
2018-12-14T17:00:42.271Z,27.05
2018-12-14T17:03:08.935Z,29.00
2018-12-14T17:05:35.602Z,26.60
2018-12-14T17:08:02.287Z,27.75
2018-12-14T17:10:28.952Z,29.27
2018-12-14T17:12:55.609Z,28.38
2018-12-14T17:15:22.302Z,30.15
2018-12-14T17:17:48.997Z,29.77
2018-12-14T17:20:15.658Z,28.70
2018-12-14T17:22:42.364Z,31.65
2018-12-14T17:25:09.051Z,37.40
2018-12-14T17:27:35.720Z,32.80
2018-12-14T17:30:02.402Z,28.32
2018-12-14T17:32:29.068Z,27.15
2018-12-14T17:34:55.734Z,33.85
2018-12-14T17:37:22.422Z,39.25
2018-12-14T17:39:49.082Z,30.30
2018-12-14T17:42:15.749Z,33.33
2018-12-14T17:44:42.436Z,36.80
2018-12-14T17:47:09.292Z,33.40
2018-12-14T17:49:35.975Z,39.42
2018-12-14T17:52:02.658Z,29.75
2018-12-14T17:54:29.339Z,28.90
2018-12-14T17:56:56.001Z,33.20
2018-12-14T17:59:22.661Z,29.72
2018-12-14T18:01:49.430Z,27.27
2018-12-14T18:04:16.231Z,28.80
2018-12-14T18:06:42.893Z,27.95
2018-12-14T18:09:09.613Z,26.52
2018-12-14T18:11:36.281Z,25.92
2018-12-14T18:14:02.987Z,27.22
2018-12-14T18:16:29.645Z,26.23
2018-12-14T18:18:57.191Z,26.90
2018-12-14T18:21:23.874Z,25.65
2018-12-14T18:23:50.542Z,28.30
2018-12-14T18:26:17.193Z,27.65
2018-12-14T18:28:43.883Z,26.87
2018-12-14T18:31:10.550Z,25.05
2018-12-14T18:33:37.331Z,31.75
2018-12-14T18:36:04.022Z,31.17
2018-12-14T18:38:30.681Z,28.77
2018-12-14T18:40:57.830Z,30.50
2018-12-14T18:43:24.494Z,28.62
2018-12-14T18:45:53.352Z,31.85
2018-12-14T18:48:19.889Z,26.02
2018-12-14T18:50:46.560Z,26.23
2018-12-14T18:53:13.248Z,26.85
2018-12-14T18:55:39.937Z,27.82
2018-12-14T18:58:06.593Z,25.00
2018-12-14T19:00:33.249Z,24.02
2018-12-14T19:02:59.935Z,26.73
2018-12-14T19:05:26.611Z,24.35
2018-12-14T19:07:53.292Z,23.50
2018-12-14T19:10:19.950Z,23.95
2018-12-14T19:12:46.606Z,22.67
2018-12-14T19:15:13.300Z,22.25
2018-12-14T19:17:39.956Z,23.57
2018-12-14T19:20:06.652Z,20.75
2018-12-14T19:22:33.354Z,23.52
2018-12-14T19:25:00.090Z,22.20
2018-12-14T19:27:26.822Z,22.25
2018-12-14T19:29:53.487Z,22.20
2018-12-14T19:32:20.161Z,22.50
2018-12-14T19:34:46.851Z,23.45
2018-12-14T19:37:13.509Z,22.50
2018-12-14T19:39:40.168Z,20.90
2018-12-14T19:42:06.867Z,22.02
2018-12-14T19:44:33.616Z,21.97
2018-12-14T19:47:00.276Z,21.25
2018-12-14T19:49:27.137Z,22.05
2018-12-14T19:51:53.972Z,21.60
2018-12-14T19:54:21.050Z,24.02
2018-12-14T19:56:47.723Z,24.25
2018-12-14T19:59:14.409Z,21.00
2018-12-14T20:01:41.073Z,21.37
2018-12-14T20:04:08.991Z,21.45
2018-12-14T20:06:35.836Z,22.42
2018-12-14T20:09:04.191Z,22.48
2018-12-14T20:11:30.886Z,20.80
2018-12-14T20:13:57.558Z,21.75
2018-12-14T20:16:24.221Z,23.75
2018-12-14T20:18:50.911Z,22.07
2018-12-14T20:21:17.579Z,21.40
2018-12-14T20:23:44.246Z,22.00
2018-12-14T20:26:11.376Z,21.60
2018-12-14T20:28:38.130Z,23.20
2018-12-14T20:31:04.845Z,21.33
2018-12-14T20:33:31.508Z,22.25
2018-12-14T20:35:58.190Z,22.30
2018-12-14T20:38:24.863Z,22.70
2018-12-14T20:40:51.525Z,23.15
2018-12-14T20:43:18.211Z,21.93
2018-12-14T20:45:44.887Z,22.60
2018-12-14T20:48:11.578Z,22.65
2018-12-14T20:50:38.241Z,31.35
2018-12-14T20:53:04.997Z,21.33
2018-12-14T20:55:31.691Z,22.58
2018-12-14T20:57:58.379Z,22.40
2018-12-14T21:00:25.191Z,22.48
2018-12-14T21:02:51.951Z,23.52
2018-12-14T21:05:18.715Z,22.27
2018-12-14T21:07:45.430Z,22.07
2018-12-14T21:10:12.097Z,23.38
2018-12-14T21:12:38.778Z,23.55
2018-12-14T21:15:05.705Z,23.50
2018-12-14T21:17:32.388Z,22.13
2018-12-14T21:19:59.141Z,29.40
2018-12-14T21:22:25.804Z,26.10
2018-12-14T21:24:52.482Z,22.62
2018-12-14T21:27:19.145Z,24.47
2018-12-14T21:29:45.821Z,28.60
2018-12-14T21:32:12.485Z,31.10
2018-12-14T21:34:39.141Z,26.20
2018-12-14T21:37:05.830Z,28.25
2018-12-14T21:39:32.489Z,24.25
2018-12-14T21:41:59.153Z,24.20
2018-12-14T21:44:25.839Z,28.67
2018-12-14T21:46:52.502Z,28.70
2018-12-14T21:49:19.204Z,27.17
2018-12-14T21:51:45.859Z,39.25
2018-12-14T21:54:12.581Z,34.67
2018-12-14T21:56:39.281Z,25.70
2018-12-14T21:59:05.958Z,25.50
2018-12-14T22:01:32.621Z,30.90
2018-12-14T22:03:59.315Z,32.10
2018-12-14T22:06:26.076Z,27.70
2018-12-14T22:08:52.819Z,23.57
2018-12-14T22:11:19.502Z,23.65
2018-12-14T22:13:46.174Z,24.40
2018-12-14T22:16:12.839Z,26.25
2018-12-14T22:18:39.534Z,29.42
2018-12-14T22:21:06.192Z,25.97
2018-12-14T22:23:32.868Z,25.48
2018-12-14T22:25:59.521Z,23.80
2018-12-14T22:28:26.186Z,25.55
2018-12-14T22:30:52.866Z,25.40
2018-12-14T22:33:19.605Z,26.17
2018-12-14T22:35:46.284Z,27.58
2018-12-14T22:38:12.986Z,22.45
2018-12-14T22:40:39.668Z,24.25
2018-12-14T22:43:06.359Z,24.87
2018-12-14T22:45:33.204Z,25.00
2018-12-14T22:47:59.875Z,22.90
2018-12-14T22:50:26.542Z,24.00
2018-12-14T22:52:53.202Z,24.37
2018-12-14T22:55:19.881Z,25.88
2018-12-14T22:57:46.534Z,25.48
2018-12-14T23:00:15.201Z,25.00
2018-12-14T23:02:41.866Z,24.92
2018-12-14T23:05:08.545Z,25.48
2018-12-14T23:07:35.202Z,25.23
2018-12-14T23:10:01.936Z,23.73
2018-12-14T23:12:28.626Z,22.87
2018-12-14T23:14:55.313Z,22.62
2018-12-14T23:17:21.982Z,24.00
2018-12-14T23:19:48.670Z,22.25
2018-12-14T23:22:15.433Z,23.65
2018-12-14T23:24:42.097Z,23.10
2018-12-14T23:27:08.811Z,23.42
2018-12-14T23:29:35.479Z,24.45
2018-12-14T23:32:02.164Z,24.90
2018-12-14T23:34:28.824Z,25.20
2018-12-14T23:36:55.488Z,22.55
2018-12-14T23:39:22.182Z,23.92
2018-12-14T23:41:48.945Z,23.92
2018-12-14T23:44:15.596Z,24.87
2018-12-14T23:46:42.276Z,25.00
2018-12-14T23:49:08.961Z,22.93
2018-12-14T23:51:35.671Z,24.82
2018-12-14T23:54:02.325Z,24.32
2018-12-14T23:56:28.990Z,23.42
2018-12-14T23:58:55.709Z,22.55
